sensor_id;sensor_type;location;lat;lon;timestamp;P1;durP1;ratioP1;P2;durP2;ratioP2
33954;SDS011;20233;50.804;7.126;2023-02-01T00:02:00;22.40;;;13.73;;
33954;SDS011;20233;50.804;7.126;2023-02-01T00:04:26;27.83;;;14.27;;
33954;SDS011;20233;50.804;7.126;2023-02-01T00:06:51;30.10;;;13.25;;
33954;SDS011;20233;50.804;7.126;2023-02-01T00:09:17;26.60;;;12.63;;
33954;SDS011;20233;50.804;7.126;2023-02-01T00:11:43;24.88;;;13.30;;
33954;SDS011;20233;50.804;7.126;2023-02-01T00:14:08;22.40;;;13.15;;
33954;SDS011;20233;50.804;7.126;2023-02-01T00:16:34;23.38;;;11.70;;
33954;SDS011;20233;50.804;7.126;2023-02-01T00:19:01;23.85;;;12.07;;
33954;SDS011;20233;50.804;7.126;2023-02-01T00:21:28;25.83;;;12.80;;
33954;SDS011;20233;50.804;7.126;2023-02-01T00:23:56;27.95;;;11.93;;
33954;SDS011;20233;50.804;7.126;2023-02-01T00:28:52;24.58;;;11.00;;
33954;SDS011;20233;50.804;7.126;2023-02-01T00:31:18;21.30;;;11.73;;
33954;SDS011;20233;50.804;7.126;2023-02-01T00:33:46;23.08;;;11.40;;
33954;SDS011;20233;50.804;7.126;2023-02-01T00:36:12;19.30;;;11.45;;
33954;SDS011;20233;50.804;7.126;2023-02-01T00:38:38;24.52;;;11.15;;
33954;SDS011;20233;50.804;7.126;2023-02-01T00:41:04;23.00;;;11.55;;
33954;SDS011;20233;50.804;7.126;2023-02-01T00:43:32;28.63;;;10.20;;
33954;SDS011;20233;50.804;7.126;2023-02-01T00:45:58;29.73;;;10.65;;
33954;SDS011;20233;50.804;7.126;2023-02-01T00:48:24;27.65;;;10.93;;
33954;SDS011;20233;50.804;7.126;2023-02-01T00:50:50;24.67;;;10.55;;
33954;SDS011;20233;50.804;7.126;2023-02-01T00:53:16;23.65;;;9.30;;
33954;SDS011;20233;50.804;7.126;2023-02-01T00:55:45;25.55;;;9.45;;
33954;SDS011;20233;50.804;7.126;2023-02-01T00:58:14;24.05;;;9.43;;
33954;SDS011;20233;50.804;7.126;2023-02-01T01:00:40;25.38;;;10.52;;
33954;SDS011;20233;50.804;7.126;2023-02-01T01:03:06;26.25;;;9.90;;
33954;SDS011;20233;50.804;7.126;2023-02-01T01:05:45;21.05;;;7.63;;
33954;SDS011;20233;50.804;7.126;2023-02-01T01:08:12;22.23;;;8.45;;
33954;SDS011;20233;50.804;7.126;2023-02-01T01:10:38;21.45;;;7.85;;
33954;SDS011;20233;50.804;7.126;2023-02-01T01:13:04;19.13;;;6.32;;
33954;SDS011;20233;50.804;7.126;2023-02-01T01:15:30;14.90;;;6.28;;
33954;SDS011;20233;50.804;7.126;2023-02-01T01:17:55;17.73;;;5.70;;
33954;SDS011;20233;50.804;7.126;2023-02-01T01:20:21;17.27;;;5.57;;
33954;SDS011;20233;50.804;7.126;2023-02-01T01:22:47;16.25;;;5.38;;
33954;SDS011;20233;50.804;7.126;2023-02-01T01:25:13;18.85;;;5.57;;
33954;SDS011;20233;50.804;7.126;2023-02-01T01:27:39;15.90;;;4.10;;
33954;SDS011;20233;50.804;7.126;2023-02-01T01:30:05;20.55;;;5.25;;
33954;SDS011;20233;50.804;7.126;2023-02-01T01:32:32;14.88;;;3.47;;
33954;SDS011;20233;50.804;7.126;2023-02-01T01:35:04;17.48;;;3.53;;
33954;SDS011;20233;50.804;7.126;2023-02-01T01:37:29;16.30;;;3.47;;
33954;SDS011;20233;50.804;7.126;2023-02-01T01:39:57;13.55;;;3.55;;
33954;SDS011;20233;50.804;7.126;2023-02-01T01:42:23;16.13;;;4.00;;
33954;SDS011;20233;50.804;7.126;2023-02-01T01:44:56;12.63;;;3.53;;
33954;SDS011;20233;50.804;7.126;2023-02-01T01:47:32;14.38;;;2.95;;
33954;SDS011;20233;50.804;7.126;2023-02-01T01:50:13;25.98;;;4.03;;
33954;SDS011;20233;50.804;7.126;2023-02-01T01:52:42;15.05;;;4.15;;
33954;SDS011;20233;50.804;7.126;2023-02-01T01:55:14;15.43;;;2.33;;
33954;SDS011;20233;50.804;7.126;2023-02-01T01:57:44;13.13;;;3.00;;
33954;SDS011;20233;50.804;7.126;2023-02-01T02:00:15;14.07;;;2.80;;
33954;SDS011;20233;50.804;7.126;2023-02-01T02:02:44;9.85;;;2.60;;
33954;SDS011;20233;50.804;7.126;2023-02-01T02:05:17;14.25;;;2.90;;
33954;SDS011;20233;50.804;7.126;2023-02-01T02:07:45;11.23;;;2.70;;
33954;SDS011;20233;50.804;7.126;2023-02-01T02:10:14;14.88;;;3.08;;
33954;SDS011;20233;50.804;7.126;2023-02-01T02:12:41;13.52;;;2.78;;
33954;SDS011;20233;50.804;7.126;2023-02-01T02:15:09;12.70;;;2.97;;
33954;SDS011;20233;50.804;7.126;2023-02-01T02:17:43;12.90;;;2.65;;
33954;SDS011;20233;50.804;7.126;2023-02-01T02:21:31;10.95;;;3.92;;
33954;SDS011;20233;50.804;7.126;2023-02-01T02:35:09;13.10;;;2.60;;
33954;SDS011;20233;50.804;7.126;2023-02-01T02:40:42;14.63;;;3.17;;
33954;SDS011;20233;50.804;7.126;2023-02-01T02:46:01;14.80;;;2.85;;
33954;SDS011;20233;50.804;7.126;2023-02-01T02:48:59;12.02;;;3.45;;
33954;SDS011;20233;50.804;7.126;2023-02-01T02:51:43;20.35;;;3.72;;
33954;SDS011;20233;50.804;7.126;2023-02-01T02:54:36;11.80;;;3.17;;
33954;SDS011;20233;50.804;7.126;2023-02-01T02:57:11;17.38;;;3.67;;
33954;SDS011;20233;50.804;7.126;2023-02-01T03:00:02;15.88;;;4.60;;
33954;SDS011;20233;50.804;7.126;2023-02-01T03:02:50;18.77;;;4.18;;
33954;SDS011;20233;50.804;7.126;2023-02-01T03:05:35;12.75;;;3.92;;
33954;SDS011;20233;50.804;7.126;2023-02-01T03:08:09;15.05;;;4.10;;
33954;SDS011;20233;50.804;7.126;2023-02-01T03:13:38;15.82;;;3.85;;
33954;SDS011;20233;50.804;7.126;2023-02-01T03:21:14;17.30;;;4.22;;
33954;SDS011;20233;50.804;7.126;2023-02-01T03:23:44;16.23;;;4.00;;
33954;SDS011;20233;50.804;7.126;2023-02-01T03:26:13;18.88;;;4.35;;
33954;SDS011;20233;50.804;7.126;2023-02-01T03:28:43;18.85;;;4.80;;
33954;SDS011;20233;50.804;7.126;2023-02-01T03:31:14;19.70;;;4.78;;
33954;SDS011;20233;50.804;7.126;2023-02-01T03:33:41;15.20;;;3.72;;
33954;SDS011;20233;50.804;7.126;2023-02-01T03:36:15;19.13;;;5.32;;
33954;SDS011;20233;50.804;7.126;2023-02-01T03:38:51;23.48;;;5.05;;
33954;SDS011;20233;50.804;7.126;2023-02-01T03:46:35;19.80;;;4.30;;
33954;SDS011;20233;50.804;7.126;2023-02-01T03:49:29;11.38;;;3.83;;
33954;SDS011;20233;50.804;7.126;2023-02-01T03:52:01;14.13;;;3.83;;
33954;SDS011;20233;50.804;7.126;2023-02-01T03:54:28;16.48;;;3.78;;
33954;SDS011;20233;50.804;7.126;2023-02-01T03:56:55;13.45;;;3.20;;
33954;SDS011;20233;50.804;7.126;2023-02-01T03:59:24;18.67;;;3.83;;
33954;SDS011;20233;50.804;7.126;2023-02-01T04:01:50;16.95;;;5.05;;
33954;SDS011;20233;50.804;7.126;2023-02-01T04:04:15;16.05;;;3.63;;
33954;SDS011;20233;50.804;7.126;2023-02-01T04:06:47;12.40;;;2.78;;
33954;SDS011;20233;50.804;7.126;2023-02-01T04:09:14;16.85;;;3.45;;
33954;SDS011;20233;50.804;7.126;2023-02-01T04:11:40;18.20;;;4.28;;
33954;SDS011;20233;50.804;7.126;2023-02-01T04:14:05;14.55;;;3.28;;
33954;SDS011;20233;50.804;7.126;2023-02-01T04:16:31;17.42;;;4.00;;
33954;SDS011;20233;50.804;7.126;2023-02-01T04:18:58;14.20;;;3.92;;
33954;SDS011;20233;50.804;7.126;2023-02-01T04:21:27;18.02;;;3.03;;
33954;SDS011;20233;50.804;7.126;2023-02-01T04:23:53;21.23;;;4.20;;
33954;SDS011;20233;50.804;7.126;2023-02-01T04:26:20;24.83;;;5.38;;
33954;SDS011;20233;50.804;7.126;2023-02-01T04:28:46;19.90;;;4.90;;
33954;SDS011;20233;50.804;7.126;2023-02-01T04:31:13;20.60;;;4.07;;
33954;SDS011;20233;50.804;7.126;2023-02-01T04:33:39;16.80;;;3.40;;
33954;SDS011;20233;50.804;7.126;2023-02-01T04:36:05;18.25;;;3.83;;
33954;SDS011;20233;50.804;7.126;2023-02-01T04:38:30;21.10;;;4.85;;
33954;SDS011;20233;50.804;7.126;2023-02-01T04:40:57;18.90;;;3.70;;
33954;SDS011;20233;50.804;7.126;2023-02-01T04:43:23;14.13;;;3.88;;
33954;SDS011;20233;50.804;7.126;2023-02-01T04:45:49;12.70;;;3.15;;
33954;SDS011;20233;50.804;7.126;2023-02-01T04:48:15;16.05;;;4.03;;
33954;SDS011;20233;50.804;7.126;2023-02-01T04:50:45;20.83;;;3.97;;
33954;SDS011;20233;50.804;7.126;2023-02-01T04:53:12;17.35;;;4.82;;
33954;SDS011;20233;50.804;7.126;2023-02-01T04:55:39;19.48;;;3.97;;
33954;SDS011;20233;50.804;7.126;2023-02-01T04:58:05;13.43;;;3.72;;
33954;SDS011;20233;50.804;7.126;2023-02-01T05:00:30;15.48;;;3.90;;
33954;SDS011;20233;50.804;7.126;2023-02-01T05:02:56;20.17;;;4.43;;
33954;SDS011;20233;50.804;7.126;2023-02-01T05:05:21;19.70;;;4.10;;
33954;SDS011;20233;50.804;7.126;2023-02-01T05:07:47;18.98;;;4.03;;
33954;SDS011;20233;50.804;7.126;2023-02-01T05:10:13;14.90;;;3.20;;
33954;SDS011;20233;50.804;7.126;2023-02-01T05:12:38;12.70;;;2.78;;
33954;SDS011;20233;50.804;7.126;2023-02-01T05:15:23;20.05;;;3.67;;
33954;SDS011;20233;50.804;7.126;2023-02-01T05:17:48;25.00;;;3.95;;
33954;SDS011;20233;50.804;7.126;2023-02-01T05:20:14;17.52;;;5.28;;
33954;SDS011;20233;50.804;7.126;2023-02-01T05:22:40;16.40;;;2.80;;
33954;SDS011;20233;50.804;7.126;2023-02-01T05:25:07;16.90;;;3.42;;
33954;SDS011;20233;50.804;7.126;2023-02-01T05:27:32;21.10;;;4.50;;
33954;SDS011;20233;50.804;7.126;2023-02-01T05:29:58;17.63;;;2.95;;
33954;SDS011;20233;50.804;7.126;2023-02-01T05:32:23;15.82;;;3.53;;
33954;SDS011;20233;50.804;7.126;2023-02-01T05:34:49;13.15;;;2.72;;
33954;SDS011;20233;50.804;7.126;2023-02-01T05:37:15;15.02;;;3.47;;
33954;SDS011;20233;50.804;7.126;2023-02-01T05:39:40;12.88;;;3.05;;
33954;SDS011;20233;50.804;7.126;2023-02-01T05:42:06;15.68;;;3.20;;
33954;SDS011;20233;50.804;7.126;2023-02-01T05:44:31;13.75;;;2.97;;
33954;SDS011;20233;50.804;7.126;2023-02-01T05:46:57;15.25;;;2.58;;
33954;SDS011;20233;50.804;7.126;2023-02-01T05:49:22;13.65;;;3.72;;
33954;SDS011;20233;50.804;7.126;2023-02-01T05:51:48;16.88;;;3.13;;
33954;SDS011;20233;50.804;7.126;2023-02-01T05:54:13;20.27;;;4.30;;
33954;SDS011;20233;50.804;7.126;2023-02-01T05:56:39;15.57;;;3.03;;
33954;SDS011;20233;50.804;7.126;2023-02-01T05:59:05;10.45;;;3.03;;
33954;SDS011;20233;50.804;7.126;2023-02-01T06:01:31;17.60;;;2.92;;
33954;SDS011;20233;50.804;7.126;2023-02-01T06:03:57;13.13;;;1.95;;
33954;SDS011;20233;50.804;7.126;2023-02-01T06:06:22;14.50;;;2.33;;
33954;SDS011;20233;50.804;7.126;2023-02-01T06:08:48;13.38;;;1.92;;
33954;SDS011;20233;50.804;7.126;2023-02-01T06:11:13;20.27;;;1.95;;
33954;SDS011;20233;50.804;7.126;2023-02-01T06:13:39;12.15;;;2.20;;
33954;SDS011;20233;50.804;7.126;2023-02-01T06:16:05;18.85;;;2.50;;
33954;SDS011;20233;50.804;7.126;2023-02-01T06:18:32;13.80;;;1.88;;
33954;SDS011;20233;50.804;7.126;2023-02-01T06:20:59;14.48;;;2.72;;
33954;SDS011;20233;50.804;7.126;2023-02-01T06:23:25;12.80;;;2.10;;
33954;SDS011;20233;50.804;7.126;2023-02-01T06:25:52;16.52;;;3.30;;
33954;SDS011;20233;50.804;7.126;2023-02-01T06:28:18;18.90;;;1.50;;
33954;SDS011;20233;50.804;7.126;2023-02-01T06:30:44;17.05;;;1.90;;
33954;SDS011;20233;50.804;7.126;2023-02-01T06:33:11;12.70;;;1.80;;
33954;SDS011;20233;50.804;7.126;2023-02-01T06:35:39;14.93;;;1.45;;
33954;SDS011;20233;50.804;7.126;2023-02-01T06:38:07;14.00;;;2.20;;
33954;SDS011;20233;50.804;7.126;2023-02-01T06:40:32;10.68;;;1.50;;
33954;SDS011;20233;50.804;7.126;2023-02-01T06:42:58;15.05;;;1.67;;
33954;SDS011;20233;50.804;7.126;2023-02-01T06:45:24;14.02;;;2.15;;
33954;SDS011;20233;50.804;7.126;2023-02-01T06:47:49;18.17;;;2.08;;
33954;SDS011;20233;50.804;7.126;2023-02-01T06:50:15;17.25;;;1.98;;
33954;SDS011;20233;50.804;7.126;2023-02-01T06:52:41;16.38;;;2.40;;
33954;SDS011;20233;50.804;7.126;2023-02-01T06:55:06;10.05;;;1.58;;
33954;SDS011;20233;50.804;7.126;2023-02-01T06:57:32;14.80;;;2.42;;
33954;SDS011;20233;50.804;7.126;2023-02-01T06:59:59;14.18;;;2.53;;
33954;SDS011;20233;50.804;7.126;2023-02-01T07:02:24;15.18;;;2.10;;
33954;SDS011;20233;50.804;7.126;2023-02-01T07:04:50;12.00;;;2.95;;
33954;SDS011;20233;50.804;7.126;2023-02-01T07:07:15;21.63;;;3.50;;
33954;SDS011;20233;50.804;7.126;2023-02-01T07:09:41;28.90;;;2.95;;
33954;SDS011;20233;50.804;7.126;2023-02-01T07:12:07;18.95;;;3.10;;
33954;SDS011;20233;50.804;7.126;2023-02-01T07:14:32;12.50;;;2.10;;
33954;SDS011;20233;50.804;7.126;2023-02-01T07:16:58;14.80;;;3.15;;
33954;SDS011;20233;50.804;7.126;2023-02-01T07:19:24;20.13;;;3.08;;
33954;SDS011;20233;50.804;7.126;2023-02-01T07:21:49;15.77;;;3.13;;
33954;SDS011;20233;50.804;7.126;2023-02-01T07:24:14;14.30;;;2.72;;
33954;SDS011;20233;50.804;7.126;2023-02-01T07:26:40;19.00;;;2.50;;
33954;SDS011;20233;50.804;7.126;2023-02-01T07:29:06;12.85;;;2.08;;
33954;SDS011;20233;50.804;7.126;2023-02-01T07:31:31;26.55;;;3.10;;
33954;SDS011;20233;50.804;7.126;2023-02-01T07:33:57;17.15;;;2.65;;
33954;SDS011;20233;50.804;7.126;2023-02-01T07:36:24;22.25;;;3.67;;
33954;SDS011;20233;50.804;7.126;2023-02-01T07:38:50;17.38;;;2.65;;
33954;SDS011;20233;50.804;7.126;2023-02-01T07:41:16;18.52;;;3.08;;
33954;SDS011;20233;50.804;7.126;2023-02-01T07:43:42;19.05;;;2.83;;
33954;SDS011;20233;50.804;7.126;2023-02-01T07:46:09;13.40;;;2.25;;
33954;SDS011;20233;50.804;7.126;2023-02-01T07:48:35;18.08;;;2.28;;
33954;SDS011;20233;50.804;7.126;2023-02-01T07:51:05;12.40;;;1.92;;
33954;SDS011;20233;50.804;7.126;2023-02-01T07:53:34;18.45;;;2.20;;
33954;SDS011;20233;50.804;7.126;2023-02-01T07:56:00;19.23;;;3.20;;
33954;SDS011;20233;50.804;7.126;2023-02-01T07:58:27;12.88;;;1.38;;
33954;SDS011;20233;50.804;7.126;2023-02-01T08:00:53;15.35;;;1.88;;
33954;SDS011;20233;50.804;7.126;2023-02-01T08:03:38;17.98;;;2.47;;
33954;SDS011;20233;50.804;7.126;2023-02-01T08:06:04;14.98;;;3.17;;
33954;SDS011;20233;50.804;7.126;2023-02-01T08:08:30;20.08;;;2.50;;
33954;SDS011;20233;50.804;7.126;2023-02-01T08:10:58;18.27;;;2.10;;
33954;SDS011;20233;50.804;7.126;2023-02-01T08:13:25;19.15;;;3.83;;
33954;SDS011;20233;50.804;7.126;2023-02-01T08:15:52;17.98;;;3.25;;
33954;SDS011;20233;50.804;7.126;2023-02-01T08:18:21;25.48;;;3.55;;
33954;SDS011;20233;50.804;7.126;2023-02-01T08:20:48;15.10;;;2.25;;
33954;SDS011;20233;50.804;7.126;2023-02-01T08:23:14;17.48;;;2.03;;
33954;SDS011;20233;50.804;7.126;2023-02-01T08:25:40;12.38;;;2.38;;
33954;SDS011;20233;50.804;7.126;2023-02-01T08:28:06;9.25;;;1.88;;
33954;SDS011;20233;50.804;7.126;2023-02-01T08:30:31;21.33;;;2.28;;
33954;SDS011;20233;50.804;7.126;2023-02-01T08:32:57;15.43;;;2.45;;
33954;SDS011;20233;50.804;7.126;2023-02-01T08:35:23;19.80;;;2.60;;
33954;SDS011;20233;50.804;7.126;2023-02-01T08:37:51;16.80;;;2.40;;
33954;SDS011;20233;50.804;7.126;2023-02-01T08:40:17;16.33;;;3.10;;
33954;SDS011;20233;50.804;7.126;2023-02-01T08:42:43;16.40;;;3.17;;
33954;SDS011;20233;50.804;7.126;2023-02-01T08:45:19;10.38;;;1.63;;
33954;SDS011;20233;50.804;7.126;2023-02-01T08:47:51;10.80;;;1.55;;
33954;SDS011;20233;50.804;7.126;2023-02-01T08:50:17;14.13;;;3.35;;
33954;SDS011;20233;50.804;7.126;2023-02-01T08:52:43;15.88;;;2.60;;
33954;SDS011;20233;50.804;7.126;2023-02-01T08:55:09;16.20;;;1.73;;
33954;SDS011;20233;50.804;7.126;2023-02-01T08:57:35;17.58;;;2.95;;
33954;SDS011;20233;50.804;7.126;2023-02-01T09:00:01;19.95;;;2.95;;
33954;SDS011;20233;50.804;7.126;2023-02-01T09:02:28;18.25;;;2.30;;
33954;SDS011;20233;50.804;7.126;2023-02-01T09:04:53;16.55;;;2.03;;
33954;SDS011;20233;50.804;7.126;2023-02-01T09:07:21;18.05;;;2.30;;
33954;SDS011;20233;50.804;7.126;2023-02-01T09:09:46;18.83;;;2.75;;
33954;SDS011;20233;50.804;7.126;2023-02-01T09:12:12;17.80;;;2.58;;
33954;SDS011;20233;50.804;7.126;2023-02-01T09:14:37;13.73;;;2.00;;
33954;SDS011;20233;50.804;7.126;2023-02-01T09:17:03;13.88;;;2.35;;
33954;SDS011;20233;50.804;7.126;2023-02-01T09:19:30;20.15;;;2.60;;
33954;SDS011;20233;50.804;7.126;2023-02-01T09:21:56;16.33;;;2.17;;
33954;SDS011;20233;50.804;7.126;2023-02-01T09:24:21;17.20;;;1.92;;
33954;SDS011;20233;50.804;7.126;2023-02-01T09:26:47;13.05;;;1.92;;
33954;SDS011;20233;50.804;7.126;2023-02-01T09:29:13;10.05;;;1.83;;
33954;SDS011;20233;50.804;7.126;2023-02-01T09:31:39;15.52;;;2.33;;
33954;SDS011;20233;50.804;7.126;2023-02-01T09:34:05;13.13;;;1.70;;
33954;SDS011;20233;50.804;7.126;2023-02-01T09:36:31;14.15;;;1.88;;
33954;SDS011;20233;50.804;7.126;2023-02-01T09:38:59;11.02;;;1.60;;
33954;SDS011;20233;50.804;7.126;2023-02-01T09:47:19;14.80;;;2.20;;
33954;SDS011;20233;50.804;7.126;2023-02-01T09:55:32;10.93;;;1.58;;
33954;SDS011;20233;50.804;7.126;2023-02-01T10:00:55;15.98;;;1.98;;
33954;SDS011;20233;50.804;7.126;2023-02-01T10:03:24;15.02;;;3.35;;
33954;SDS011;20233;50.804;7.126;2023-02-01T10:06:13;16.35;;;2.20;;
33954;SDS011;20233;50.804;7.126;2023-02-01T10:09:10;24.35;;;2.97;;
33954;SDS011;20233;50.804;7.126;2023-02-01T10:12:01;13.82;;;1.83;;
33954;SDS011;20233;50.804;7.126;2023-02-01T10:14:59;9.48;;;1.17;;
33954;SDS011;20233;50.804;7.126;2023-02-01T10:27:56;19.83;;;2.83;;
33954;SDS011;20233;50.804;7.126;2023-02-01T10:30:26;17.38;;;1.90;;
33954;SDS011;20233;50.804;7.126;2023-02-01T10:35:28;13.35;;;1.60;;
33954;SDS011;20233;50.804;7.126;2023-02-01T10:37:59;11.30;;;1.58;;
33954;SDS011;20233;50.804;7.126;2023-02-01T10:40:26;9.32;;;1.77;;
33954;SDS011;20233;50.804;7.126;2023-02-01T10:42:54;13.60;;;1.75;;
33954;SDS011;20233;50.804;7.126;2023-02-01T10:45:26;8.68;;;1.15;;
33954;SDS011;20233;50.804;7.126;2023-02-01T10:47:54;11.20;;;2.20;;
33954;SDS011;20233;50.804;7.126;2023-02-01T10:53:01;12.15;;;1.42;;
33954;SDS011;20233;50.804;7.126;2023-02-01T10:55:37;16.25;;;2.58;;
33954;SDS011;20233;50.804;7.126;2023-02-01T10:58:15;13.63;;;1.67;;
33954;SDS011;20233;50.804;7.126;2023-02-01T11:00:47;9.98;;;1.15;;
33954;SDS011;20233;50.804;7.126;2023-02-01T11:06:11;13.07;;;1.48;;
33954;SDS011;20233;50.804;7.126;2023-02-01T11:09:39;9.40;;;1.17;;
33954;SDS011;20233;50.804;7.126;2023-02-01T11:14:19;13.88;;;1.52;;
33954;SDS011;20233;50.804;7.126;2023-02-01T11:16:55;12.68;;;1.77;;
33954;SDS011;20233;50.804;7.126;2023-02-01T11:19:24;11.93;;;2.00;;
33954;SDS011;20233;50.804;7.126;2023-02-01T11:21:50;15.32;;;2.63;;
33954;SDS011;20233;50.804;7.126;2023-02-01T11:24:22;15.88;;;2.72;;
33954;SDS011;20233;50.804;7.126;2023-02-01T11:26:49;12.93;;;1.65;;
33954;SDS011;20233;50.804;7.126;2023-02-01T11:29:17;8.88;;;1.73;;
33954;SDS011;20233;50.804;7.126;2023-02-01T11:31:47;10.77;;;1.40;;
33954;SDS011;20233;50.804;7.126;2023-02-01T11:34:17;15.80;;;1.70;;
33954;SDS011;20233;50.804;7.126;2023-02-01T11:36:46;16.70;;;1.95;;
33954;SDS011;20233;50.804;7.126;2023-02-01T11:42:02;14.00;;;1.35;;
33954;SDS011;20233;50.804;7.126;2023-02-01T11:44:35;11.00;;;1.30;;
33954;SDS011;20233;50.804;7.126;2023-02-01T11:49:54;10.27;;;1.52;;
33954;SDS011;20233;50.804;7.126;2023-02-01T12:06:44;8.68;;;1.52;;
33954;SDS011;20233;50.804;7.126;2023-02-01T12:14:36;14.43;;;2.15;;
33954;SDS011;20233;50.804;7.126;2023-02-01T12:25:44;12.77;;;1.67;;
33954;SDS011;20233;50.804;7.126;2023-02-01T12:34:15;9.88;;;1.42;;
33954;SDS011;20233;50.804;7.126;2023-02-01T12:37:48;10.00;;;1.33;;
33954;SDS011;20233;50.804;7.126;2023-02-01T12:42:14;11.43;;;1.75;;
33954;SDS011;20233;50.804;7.126;2023-02-01T12:44:50;9.13;;;1.40;;
33954;SDS011;20233;50.804;7.126;2023-02-01T12:47:22;10.95;;;0.95;;
33954;SDS011;20233;50.804;7.126;2023-02-01T12:58:08;12.68;;;1.95;;
33954;SDS011;20233;50.804;7.126;2023-02-01T13:00:43;13.05;;;1.73;;
33954;SDS011;20233;50.804;7.126;2023-02-01T13:03:35;12.90;;;2.47;;
33954;SDS011;20233;50.804;7.126;2023-02-01T13:06:09;12.13;;;1.58;;
33954;SDS011;20233;50.804;7.126;2023-02-01T13:08:46;12.13;;;1.48;;
33954;SDS011;20233;50.804;7.126;2023-02-01T13:11:27;11.13;;;1.83;;
33954;SDS011;20233;50.804;7.126;2023-02-01T13:16:40;11.23;;;1.50;;
33954;SDS011;20233;50.804;7.126;2023-02-01T13:19:24;12.57;;;1.95;;
33954;SDS011;20233;50.804;7.126;2023-02-01T13:22:03;12.60;;;1.67;;
33954;SDS011;20233;50.804;7.126;2023-02-01T13:24:38;17.08;;;1.67;;
33954;SDS011;20233;50.804;7.126;2023-02-01T13:27:26;11.77;;;0.95;;
33954;SDS011;20233;50.804;7.126;2023-02-01T13:41:25;15.18;;;2.05;;
33954;SDS011;20233;50.804;7.126;2023-02-01T13:43:58;11.65;;;1.23;;
33954;SDS011;20233;50.804;7.126;2023-02-01T13:46:27;9.15;;;1.48;;
33954;SDS011;20233;50.804;7.126;2023-02-01T13:48:55;12.88;;;1.55;;
33954;SDS011;20233;50.804;7.126;2023-02-01T13:51:58;9.00;;;1.40;;
33954;SDS011;20233;50.804;7.126;2023-02-01T13:54:25;12.93;;;1.73;;
33954;SDS011;20233;50.804;7.126;2023-02-01T13:57:05;9.85;;;1.33;;
33954;SDS011;20233;50.804;7.126;2023-02-01T14:05:09;13.48;;;1.48;;
33954;SDS011;20233;50.804;7.126;2023-02-01T14:07:36;12.57;;;1.20;;
33954;SDS011;20233;50.804;7.126;2023-02-01T14:13:32;9.38;;;1.05;;
33954;SDS011;20233;50.804;7.126;2023-02-01T14:16:16;8.65;;;1.98;;
33954;SDS011;20233;50.804;7.126;2023-02-01T14:23:57;7.28;;;1.10;;
33954;SDS011;20233;50.804;7.126;2023-02-01T14:26:42;11.27;;;2.55;;
33954;SDS011;20233;50.804;7.126;2023-02-01T14:31:50;8.38;;;0.98;;
33954;SDS011;20233;50.804;7.126;2023-02-01T14:37:32;9.23;;;0.85;;
33954;SDS011;20233;50.804;7.126;2023-02-01T14:42:37;8.80;;;1.65;;
33954;SDS011;20233;50.804;7.126;2023-02-01T14:55:59;9.93;;;0.73;;
33954;SDS011;20233;50.804;7.126;2023-02-01T15:01:14;13.15;;;0.80;;
33954;SDS011;20233;50.804;7.126;2023-02-01T15:06:29;10.00;;;1.25;;
33954;SDS011;20233;50.804;7.126;2023-02-01T15:09:11;15.90;;;2.10;;
33954;SDS011;20233;50.804;7.126;2023-02-01T15:14:26;8.27;;;0.68;;
33954;SDS011;20233;50.804;7.126;2023-02-01T15:16:52;8.90;;;0.93;;
33954;SDS011;20233;50.804;7.126;2023-02-01T15:19:19;10.73;;;1.00;;
33954;SDS011;20233;50.804;7.126;2023-02-01T15:21:50;10.00;;;0.82;;
33954;SDS011;20233;50.804;7.126;2023-02-01T15:24:35;10.80;;;1.30;;
33954;SDS011;20233;50.804;7.126;2023-02-01T15:27:04;8.07;;;0.80;;
33954;SDS011;20233;50.804;7.126;2023-02-01T15:29:31;9.17;;;0.90;;
33954;SDS011;20233;50.804;7.126;2023-02-01T15:31:58;14.90;;;2.15;;
33954;SDS011;20233;50.804;7.126;2023-02-01T15:34:43;7.60;;;0.70;;
33954;SDS011;20233;50.804;7.126;2023-02-01T15:37:12;9.73;;;0.57;;
33954;SDS011;20233;50.804;7.126;2023-02-01T15:40:02;10.35;;;0.80;;
33954;SDS011;20233;50.804;7.126;2023-02-01T15:42:35;9.15;;;1.33;;
33954;SDS011;20233;50.804;7.126;2023-02-01T15:45:17;8.23;;;0.90;;
33954;SDS011;20233;50.804;7.126;2023-02-01T15:47:46;8.87;;;0.70;;
33954;SDS011;20233;50.804;7.126;2023-02-01T15:50:17;8.75;;;1.00;;
33954;SDS011;20233;50.804;7.126;2023-02-01T15:52:46;10.60;;;1.08;;
33954;SDS011;20233;50.804;7.126;2023-02-01T15:57:47;13.68;;;2.97;;
33954;SDS011;20233;50.804;7.126;2023-02-01T16:00:18;6.88;;;0.70;;
33954;SDS011;20233;50.804;7.126;2023-02-01T16:02:54;8.43;;;1.42;;
33954;SDS011;20233;50.804;7.126;2023-02-01T16:05:40;8.80;;;0.90;;
33954;SDS011;20233;50.804;7.126;2023-02-01T16:10:45;14.52;;;0.93;;
33954;SDS011;20233;50.804;7.126;2023-02-01T16:13:12;9.00;;;1.02;;
33954;SDS011;20233;50.804;7.126;2023-02-01T16:15:39;7.82;;;0.68;;
33954;SDS011;20233;50.804;7.126;2023-02-01T16:18:05;12.88;;;1.05;;
33954;SDS011;20233;50.804;7.126;2023-02-01T16:20:35;9.00;;;1.60;;
33954;SDS011;20233;50.804;7.126;2023-02-01T16:23:02;8.40;;;1.23;;
33954;SDS011;20233;50.804;7.126;2023-02-01T16:25:29;14.48;;;1.45;;
33954;SDS011;20233;50.804;7.126;2023-02-01T16:27:55;11.90;;;1.00;;
33954;SDS011;20233;50.804;7.126;2023-02-01T16:30:20;7.90;;;0.63;;
33954;SDS011;20233;50.804;7.126;2023-02-01T16:32:49;6.63;;;0.70;;
33954;SDS011;20233;50.804;7.126;2023-02-01T16:35:21;10.18;;;0.80;;
33954;SDS011;20233;50.804;7.126;2023-02-01T16:37:50;8.20;;;1.20;;
33954;SDS011;20233;50.804;7.126;2023-02-01T16:40:16;10.48;;;1.45;;
33954;SDS011;20233;50.804;7.126;2023-02-01T16:42:43;12.23;;;2.38;;
33954;SDS011;20233;50.804;7.126;2023-02-01T16:45:10;7.00;;;1.30;;
33954;SDS011;20233;50.804;7.126;2023-02-01T16:47:36;12.70;;;2.10;;
33954;SDS011;20233;50.804;7.126;2023-02-01T16:50:03;9.75;;;1.80;;
33954;SDS011;20233;50.804;7.126;2023-02-01T16:52:39;12.02;;;1.40;;
33954;SDS011;20233;50.804;7.126;2023-02-01T16:55:09;8.25;;;1.40;;
33954;SDS011;20233;50.804;7.126;2023-02-01T16:57:38;8.50;;;1.50;;
33954;SDS011;20233;50.804;7.126;2023-02-01T17:00:04;8.05;;;1.52;;
33954;SDS011;20233;50.804;7.126;2023-02-01T17:02:31;5.80;;;0.90;;
33954;SDS011;20233;50.804;7.126;2023-02-01T17:04:56;8.30;;;1.52;;
33954;SDS011;20233;50.804;7.126;2023-02-01T17:07:22;12.98;;;2.78;;
33954;SDS011;20233;50.804;7.126;2023-02-01T17:09:48;5.03;;;0.80;;
33954;SDS011;20233;50.804;7.126;2023-02-01T17:12:22;13.40;;;1.02;;
33954;SDS011;20233;50.804;7.126;2023-02-01T17:14:48;14.07;;;2.22;;
33954;SDS011;20233;50.804;7.126;2023-02-01T17:17:14;6.35;;;1.73;;
33954;SDS011;20233;50.804;7.126;2023-02-01T17:19:47;10.73;;;1.40;;
33954;SDS011;20233;50.804;7.126;2023-02-01T17:22:18;8.38;;;1.15;;
33954;SDS011;20233;50.804;7.126;2023-02-01T17:24:45;11.32;;;2.42;;
33954;SDS011;20233;50.804;7.126;2023-02-01T17:27:10;6.80;;;1.40;;
33954;SDS011;20233;50.804;7.126;2023-02-01T17:29:36;7.65;;;1.35;;
33954;SDS011;20233;50.804;7.126;2023-02-01T17:32:02;13.13;;;2.28;;
33954;SDS011;20233;50.804;7.126;2023-02-01T17:34:29;17.02;;;3.53;;
33954;SDS011;20233;50.804;7.126;2023-02-01T17:36:54;10.30;;;2.95;;
33954;SDS011;20233;50.804;7.126;2023-02-01T17:39:20;13.10;;;2.38;;
33954;SDS011;20233;50.804;7.126;2023-02-01T17:42:05;9.90;;;1.95;;
33954;SDS011;20233;50.804;7.126;2023-02-01T17:44:34;16.27;;;2.40;;
33954;SDS011;20233;50.804;7.126;2023-02-01T17:47:00;12.50;;;2.58;;
33954;SDS011;20233;50.804;7.126;2023-02-01T17:49:25;13.75;;;3.28;;
33954;SDS011;20233;50.804;7.126;2023-02-01T17:51:55;14.48;;;2.70;;